Time;durP1;ratioP1;P1;durP2;ratioP2;P2;SDS_P1;SDS_P2;PMS_P1;PMS_P2;Temp;Humidity;BMP_temperature;BMP_pressure;BME280_temperature;BME280_humidity;BME280_pressure;Samples;Min_cycle;Max_cycle;Signal;HPM_P1;HPM_P2
2023/06/02 00:08:22;;;;;;;5.88;3.33;;;;;;;;;;5048847;28;20040;-75
2023/06/02 00:10:47;;;;;;;5.88;3.38;;;;;;;;;;5049407;28;20033;-75
2023/06/02 00:13:13;;;;;;;8.88;3.85;;;;;;;;;;5048229;28;20066;-74
2023/06/02 00:15:40;;;;;;;5.72;3.78;;;;;;;;;;5049156;28;20061;-75
2023/06/02 00:18:05;;;;;;;7.35;3.58;;;;;;;;;;5049109;28;20110;-74
2023/06/02 00:20:31;;;;;;;6.82;3.58;;;;;;;;;;5049156;28;20735;-75
2023/06/02 00:22:57;;;;;;;6.70;3.83;;;;;;;;;;5049008;28;20108;-75
2023/06/02 00:25:22;;;;;;;7.32;3.97;;;;;;;;;;5048861;28;20037;-75
2023/06/02 00:27:48;;;;;;;6.80;3.70;;;;;;;;;;5049128;28;20028;-74
2023/06/02 00:30:14;;;;;;;6.05;3.63;;;;;;;;;;5048661;28;20086;-74
2023/06/02 00:32:39;;;;;;;7.32;3.72;;;;;;;;;;5048821;28;20025;-74
2023/06/02 00:35:05;;;;;;;5.35;3.45;;;;;;;;;;5048554;28;20060;-74
2023/06/02 00:37:30;;;;;;;5.30;3.78;;;;;;;;;;5048820;28;20086;-75
2023/06/02 00:39:56;;;;;;;7.03;3.65;;;;;;;;;;5048491;28;20069;-75
2023/06/02 00:42:21;;;;;;;5.97;3.80;;;;;;;;;;5048962;28;20056;-74
2023/06/02 00:44:47;;;;;;;5.45;3.90;;;;;;;;;;5048796;28;20108;-75
2023/06/02 00:47:12;;;;;;;6.25;3.60;;;;;;;;;;5048827;28;20049;-75
2023/06/02 00:49:38;;;;;;;5.65;3.80;;;;;;;;;;5063849;28;20025;-75
2023/06/02 00:52:05;;;;;;;6.05;3.60;;;;;;;;;;5048178;28;20501;-74
2023/06/02 00:54:30;;;;;;;5.47;3.70;;;;;;;;;;5048460;28;20044;-75
2023/06/02 00:56:57;;;;;;;4.85;3.72;;;;;;;;;;5048860;28;20108;-74
2023/06/02 00:59:23;;;;;;;6.65;3.55;;;;;;;;;;5048692;28;20025;-75
2023/06/02 01:01:49;;;;;;;7.20;3.75;;;;;;;;;;5048581;28;20040;-75
2023/06/02 01:04:15;;;;;;;6.93;4.07;;;;;;;;;;5048471;28;20025;-74
2023/06/02 01:06:42;;;;;;;7.22;3.90;;;;;;;;;;5048359;28;20028;-75
2023/06/02 01:09:10;;;;;;;7.63;3.90;;;;;;;;;;5048517;28;20083;-74
2023/06/02 01:11:36;;;;;;;6.28;3.35;;;;;;;;;;5048454;28;20025;-75
2023/06/02 01:14:02;;;;;;;9.68;4.05;;;;;;;;;;5048546;28;20394;-75
2023/06/02 01:16:28;;;;;;;7.95;3.75;;;;;;;;;;5048507;28;20036;-74
2023/06/02 01:18:54;;;;;;;4.97;3.50;;;;;;;;;;5048656;28;20461;-74
2023/06/02 01:21:28;;;;;;;5.78;3.40;;;;;;;;;;5048196;28;20119;-75
2023/06/02 01:23:57;;;;;;;7.50;4.03;;;;;;;;;;5049669;28;20043;-74
2023/06/02 01:26:28;;;;;;;5.20;3.45;;;;;;;;;;5053067;28;20091;-75
2023/06/02 01:28:54;;;;;;;5.30;3.67;;;;;;;;;;5052356;28;20489;-75
2023/06/02 01:31:29;;;;;;;5.90;3.67;;;;;;;;;;5052085;28;20021;-75
2023/06/02 01:34:02;;;;;;;6.75;3.83;;;;;;;;;;5052312;28;20396;-74
2023/06/02 01:36:29;;;;;;;5.38;3.60;;;;;;;;;;5051814;28;20485;-74
2023/06/02 01:38:57;;;;;;;6.03;3.50;;;;;;;;;;5052063;28;20102;-74
2023/06/02 01:41:25;;;;;;;6.60;4.10;;;;;;;;;;5051797;28;20639;-74
2023/06/02 01:43:52;;;;;;;7.22;4.32;;;;;;;;;;5052075;28;20059;-74
2023/06/02 01:46:17;;;;;;;6.05;4.10;;;;;;;;;;5051781;28;20112;-74
2023/06/02 01:48:43;;;;;;;7.47;4.25;;;;;;;;;;5067434;28;20120;-75
2023/06/02 01:51:08;;;;;;;7.07;4.60;;;;;;;;;;5051788;28;20021;-75
2023/06/02 01:53:33;;;;;;;6.85;4.55;;;;;;;;;;5051535;28;20036;-75
2023/06/02 01:56:00;;;;;;;8.32;4.75;;;;;;;;;;5051595;28;20036;-74
2023/06/02 01:58:25;;;;;;;7.57;4.45;;;;;;;;;;5051829;28;20025;-75
2023/06/02 02:00:54;;;;;;;8.13;4.20;;;;;;;;;;5051362;28;20028;-74
2023/06/02 02:03:19;;;;;;;7.43;4.40;;;;;;;;;;5051651;28;20033;-74
2023/06/02 02:05:45;;;;;;;6.65;4.28;;;;;;;;;;5051361;28;20498;-74
2023/06/02 02:08:13;;;;;;;7.13;4.22;;;;;;;;;;5051263;28;20029;-74
2023/06/02 02:10:39;;;;;;;8.40;4.38;;;;;;;;;;5051187;28;20083;-74
2023/06/02 02:13:04;;;;;;;6.68;4.25;;;;;;;;;;5051639;28;20029;-75
2023/06/02 02:15:30;;;;;;;6.40;4.65;;;;;;;;;;5051338;28;20033;-75
2023/06/02 02:17:56;;;;;;;6.53;4.50;;;;;;;;;;5051449;28;20033;-74
2023/06/02 02:20:22;;;;;;;7.03;4.05;;;;;;;;;;5051252;28;20485;-74
2023/06/02 02:22:48;;;;;;;7.15;4.40;;;;;;;;;;5051112;28;20112;-75
2023/06/02 02:25:14;;;;;;;7.47;4.50;;;;;;;;;;5066301;28;20036;-74
2023/06/02 02:27:39;;;;;;;9.93;4.70;;;;;;;;;;5051522;28;20035;-74
2023/06/02 02:30:06;;;;;;;6.97;4.85;;;;;;;;;;5051251;28;20025;-74
2023/06/02 02:32:34;;;;;;;8.20;4.65;;;;;;;;;;5051391;28;20388;-74
2023/06/02 02:35:00;;;;;;;7.25;4.68;;;;;;;;;;5050490;28;20064;-74
2023/06/02 02:37:27;;;;;;;8.93;4.72;;;;;;;;;;5050527;28;20053;-74
2023/06/02 02:39:52;;;;;;;6.03;3.97;;;;;;;;;;5051111;28;20048;-74
2023/06/02 02:42:18;;;;;;;7.00;4.75;;;;;;;;;;5050726;28;20037;-74
2023/06/02 02:44:43;;;;;;;7.38;4.65;;;;;;;;;;5051188;28;20029;-74
2023/06/02 02:47:09;;;;;;;7.88;4.65;;;;;;;;;;5050876;28;20036;-74
2023/06/02 02:49:34;;;;;;;7.75;4.65;;;;;;;;;;5051042;28;20109;-74
2023/06/02 02:51:59;;;;;;;8.23;4.90;;;;;;;;;;5050411;28;20029;-74
2023/06/02 02:54:27;;;;;;;11.43;4.90;;;;;;;;;;5050916;28;20021;-74
2023/06/02 02:56:53;;;;;;;8.57;4.90;;;;;;;;;;5050544;28;20037;-74
2023/06/02 02:59:19;;;;;;;7.30;4.65;;;;;;;;;;5050804;28;20030;-74
2023/06/02 03:01:46;;;;;;;7.95;4.85;;;;;;;;;;5050199;28;20033;-74
2023/06/02 03:04:18;;;;;;;7.57;4.60;;;;;;;;;;5050746;28;20051;-74
2023/06/02 03:06:45;;;;;;;8.13;5.00;;;;;;;;;;5050152;28;20028;-74
2023/06/02 03:09:11;;;;;;;7.25;4.57;;;;;;;;;;5050616;28;20036;-74
2023/06/02 03:11:37;;;;;;;10.05;4.90;;;;;;;;;;5050225;28;20025;-75
2023/06/02 03:14:02;;;;;;;7.70;4.93;;;;;;;;;;5050464;28;20514;-75
2023/06/02 03:16:28;;;;;;;6.43;4.43;;;;;;;;;;5050359;28;20036;-74
2023/06/02 03:18:54;;;;;;;7.55;4.53;;;;;;;;;;5050355;28;20072;-75
2023/06/02 03:21:21;;;;;;;8.57;4.90;;;;;;;;;;5049530;28;20024;-74
2023/06/02 03:23:46;;;;;;;8.18;5.15;;;;;;;;;;5050394;28;20028;-74
2023/06/02 03:26:12;;;;;;;7.35;5.10;;;;;;;;;;5050663;28;20409;-74
2023/06/02 03:28:39;;;;;;;8.73;4.78;;;;;;;;;;5050448;28;20029;-74
2023/06/02 03:31:04;;;;;;;7.47;4.90;;;;;;;;;;5050113;28;20070;-74
2023/06/02 03:33:30;;;;;;;10.50;5.10;;;;;;;;;;5049947;28;20032;-74
2023/06/02 03:35:56;;;;;;;8.55;5.10;;;;;;;;;;5064951;28;20081;-75
2023/06/02 03:38:21;;;;;;;8.57;5.22;;;;;;;;;;5049396;28;20426;-74
2023/06/02 03:40:47;;;;;;;8.07;5.00;;;;;;;;;;5049799;28;20025;-75
2023/06/02 03:43:12;;;;;;;8.02;5.15;;;;;;;;;;5049804;28;20032;-75
2023/06/02 03:45:37;;;;;;;7.45;5.05;;;;;;;;;;5065444;28;20037;-74
2023/06/02 03:48:04;;;;;;;10.05;5.30;;;;;;;;;;5049911;28;20029;-74
2023/06/02 03:50:30;;;;;;;7.57;5.05;;;;;;;;;;5049906;28;20108;-74
2023/06/02 03:52:55;;;;;;;7.55;4.80;;;;;;;;;;5047713;28;20170;-74
2023/06/02 03:55:22;;;;;;;7.85;5.07;;;;;;;;;;5049591;28;20041;-74
2023/06/02 03:57:47;;;;;;;9.85;4.97;;;;;;;;;;5049469;28;20025;-74
2023/06/02 04:00:13;;;;;;;7.57;5.10;;;;;;;;;;5048314;28;20098;-74
2023/06/02 04:02:38;;;;;;;7.75;4.72;;;;;;;;;;5049324;28;20021;-74
2023/06/02 04:05:05;;;;;;;7.50;4.75;;;;;;;;;;5049645;28;20116;-75
2023/06/02 04:07:30;;;;;;;8.90;5.70;;;;;;;;;;5049153;28;20106;-74
2023/06/02 04:09:56;;;;;;;9.88;5.25;;;;;;;;;;5049465;28;20423;-74
2023/06/02 04:12:21;;;;;;;8.20;5.32;;;;;;;;;;5048954;28;20108;-74
2023/06/02 04:14:46;;;;;;;8.35;5.13;;;;;;;;;;5049219;28;20031;-75
2023/06/02 04:17:12;;;;;;;9.02;5.28;;;;;;;;;;5048916;28;20492;-74
2023/06/02 04:19:37;;;;;;;7.45;5.38;;;;;;;;;;5049326;28;20025;-74
2023/06/02 04:22:05;;;;;;;9.02;5.55;;;;;;;;;;5048455;28;20404;-74
2023/06/02 04:24:30;;;;;;;9.77;5.68;;;;;;;;;;5049329;28;20083;-74
2023/06/02 04:26:56;;;;;;;8.13;5.45;;;;;;;;;;5048965;28;20037;-75
2023/06/02 04:29:22;;;;;;;9.15;5.20;;;;;;;;;;5049114;28;20029;-74
2023/06/02 04:31:48;;;;;;;8.05;5.43;;;;;;;;;;5048715;28;20100;-74
2023/06/02 04:34:13;;;;;;;9.40;5.38;;;;;;;;;;5048540;28;20108;-74
2023/06/02 04:36:40;;;;;;;9.45;5.57;;;;;;;;;;5048494;28;20037;-74
2023/06/02 04:39:06;;;;;;;8.55;5.30;;;;;;;;;;5048797;28;20048;-74
2023/06/02 04:41:32;;;;;;;10.15;5.30;;;;;;;;;;5048756;28;20021;-74
2023/06/02 04:43:58;;;;;;;7.35;5.07;;;;;;;;;;5048843;28;20089;-74
2023/06/02 04:46:26;;;;;;;8.35;5.20;;;;;;;;;;5048880;28;20116;-75
2023/06/02 04:48:55;;;;;;;8.13;5.05;;;;;;;;;;5048600;28;20033;-74
2023/06/02 04:51:27;;;;;;;9.75;5.03;;;;;;;;;;5048376;28;20021;-74
2023/06/02 04:53:53;;;;;;;7.25;5.13;;;;;;;;;;5048338;28;20035;-74
2023/06/02 04:56:19;;;;;;;9.43;5.38;;;;;;;;;;5048690;28;20033;-74
2023/06/02 04:58:44;;;;;;;8.13;5.00;;;;;;;;;;5048267;28;20028;-74
2023/06/02 05:01:09;;;;;;;8.25;4.60;;;;;;;;;;5048777;28;20049;-75
2023/06/02 05:03:35;;;;;;;9.38;5.03;;;;;;;;;;5048145;28;20047;-74
2023/06/02 05:06:02;;;;;;;6.78;5.18;;;;;;;;;;5048839;28;20017;-74
2023/06/02 05:08:27;;;;;;;7.35;4.75;;;;;;;;;;5048070;28;20108;-75
2023/06/02 05:10:53;;;;;;;9.32;5.10;;;;;;;;;;5048794;28;20029;-74
2023/06/02 05:13:18;;;;;;;11.90;5.20;;;;;;;;;;5048584;28;20104;-77
2023/06/02 05:15:44;;;;;;;9.98;4.75;;;;;;;;;;5059814;28;20044;-74
2023/06/02 05:18:09;;;;;;;10.57;5.30;;;;;;;;;;5068357;28;20036;-74
2023/06/02 05:20:35;;;;;;;7.70;4.90;;;;;;;;;;5067214;28;20033;-74
2023/06/02 05:23:00;;;;;;;8.80;5.40;;;;;;;;;;5067806;28;20614;-74
2023/06/02 05:25:26;;;;;;;8.93;4.95;;;;;;;;;;5068564;28;20102;-74
2023/06/02 05:27:51;;;;;;;10.63;5.90;;;;;;;;;;5068126;28;20016;-74
2023/06/02 05:30:17;;;;;;;8.55;5.07;;;;;;;;;;5068409;28;20553;-74
2023/06/02 05:32:42;;;;;;;8.35;4.82;;;;;;;;;;5068023;28;20017;-74
2023/06/02 05:35:08;;;;;;;7.25;4.63;;;;;;;;;;5068536;28;20033;-74
2023/06/02 05:37:34;;;;;;;6.38;4.40;;;;;;;;;;5067913;28;20059;-74
2023/06/02 05:39:59;;;;;;;8.27;4.63;;;;;;;;;;5068307;28;20041;-75
2023/06/02 05:42:25;;;;;;;7.35;4.55;;;;;;;;;;5068155;28;20523;-75
2023/06/02 05:44:51;;;;;;;7.18;4.25;;;;;;;;;;5068019;28;20036;-74
2023/06/02 05:47:16;;;;;;;7.70;4.57;;;;;;;;;;5067770;28;20012;-74
2023/06/02 05:49:42;;;;;;;7.57;4.60;;;;;;;;;;5068068;28;20025;-74
2023/06/02 05:52:07;;;;;;;8.68;4.25;;;;;;;;;;5067712;28;20020;-76
2023/06/02 05:54:33;;;;;;;9.38;4.65;;;;;;;;;;5067912;28;20028;-76
2023/06/02 05:56:58;;;;;;;7.28;4.68;;;;;;;;;;5068281;28;20441;-76
2023/06/02 05:59:23;;;;;;;8.00;4.65;;;;;;;;;;5067969;28;20098;-76
2023/06/02 06:01:49;;;;;;;6.38;4.55;;;;;;;;;;5068009;28;20048;-76
2023/06/02 06:04:14;;;;;;;7.30;4.60;;;;;;;;;;5067605;28;20028;-76
2023/06/02 06:06:40;;;;;;;9.30;4.53;;;;;;;;;;5067661;28;20028;-76
2023/06/02 06:09:05;;;;;;;7.28;4.90;;;;;;;;;;5067832;28;20464;-76
2023/06/02 06:11:31;;;;;;;14.25;5.15;;;;;;;;;;5070066;28;20021;-76
2023/06/02 06:13:56;;;;;;;11.55;4.85;;;;;;;;;;5071302;28;20028;-76
2023/06/02 06:16:21;;;;;;;11.20;5.07;;;;;;;;;;5070087;28;20031;-76
2023/06/02 06:18:47;;;;;;;8.68;4.65;;;;;;;;;;5071237;28;20462;-76
2023/06/02 06:21:13;;;;;;;11.15;5.30;;;;;;;;;;5071175;28;20036;-76
2023/06/02 06:23:38;;;;;;;10.35;5.38;;;;;;;;;;5070684;28;20024;-76
2023/06/02 06:26:04;;;;;;;9.18;5.03;;;;;;;;;;5071127;28;20587;-76
2023/06/02 06:28:29;;;;;;;10.15;4.93;;;;;;;;;;5071158;28;20032;-77
2023/06/02 06:30:54;;;;;;;8.50;5.20;;;;;;;;;;5071114;28;20024;-76
2023/06/02 06:33:20;;;;;;;8.95;4.70;;;;;;;;;;5070827;28;20025;-76
2023/06/02 06:35:45;;;;;;;9.15;5.10;;;;;;;;;;5071235;28;20036;-76
2023/06/02 06:38:11;;;;;;;8.82;4.90;;;;;;;;;;5070190;28;20040;-76
2023/06/02 06:40:36;;;;;;;11.75;5.38;;;;;;;;;;5071343;28;20126;-76
2023/06/02 06:43:02;;;;;;;12.55;4.80;;;;;;;;;;5070755;28;20023;-76
2023/06/02 06:45:27;;;;;;;12.00;5.60;;;;;;;;;;5070682;28;20392;-76
2023/06/02 06:47:53;;;;;;;10.45;5.38;;;;;;;;;;5070637;28;20075;-76
2023/06/02 06:50:18;;;;;;;8.98;5.00;;;;;;;;;;5071042;28;20032;-76
2023/06/02 06:52:45;;;;;;;9.57;5.03;;;;;;;;;;5070609;28;20021;-76
2023/06/02 06:55:11;;;;;;;10.38;5.18;;;;;;;;;;5070325;28;20178;-76
2023/06/02 06:57:36;;;;;;;7.35;4.97;;;;;;;;;;5070728;28;20467;-76
2023/06/02 07:00:03;;;;;;;6.82;4.75;;;;;;;;;;5070477;28;20086;-76
2023/06/02 07:02:29;;;;;;;10.90;4.95;;;;;;;;;;5070551;28;20029;-76
2023/06/02 07:04:54;;;;;;;7.93;4.85;;;;;;;;;;5069982;28;20070;-76
2023/06/02 07:07:23;;;;;;;6.55;4.63;;;;;;;;;;5070307;28;20085;-76
2023/06/02 07:09:48;;;;;;;7.95;4.68;;;;;;;;;;5070372;28;20080;-76
2023/06/02 07:12:14;;;;;;;8.23;4.40;;;;;;;;;;5070405;28;20101;-76
2023/06/02 07:14:39;;;;;;;8.75;4.25;;;;;;;;;;5069948;28;20571;-76
2023/06/02 07:17:05;;;;;;;7.95;4.78;;;;;;;;;;5070283;28;20044;-76
2023/06/02 07:19:30;;;;;;;7.40;4.50;;;;;;;;;;5069937;28;20035;-76
2023/06/02 07:21:56;;;;;;;7.28;4.30;;;;;;;;;;5069593;28;20595;-76
2023/06/02 07:24:21;;;;;;;8.20;4.20;;;;;;;;;;5069910;28;20025;-76
2023/06/02 07:26:46;;;;;;;6.03;3.72;;;;;;;;;;5070252;28;20021;-76
2023/06/02 07:29:12;;;;;;;8.15;4.28;;;;;;;;;;5069755;28;20112;-76
2023/06/02 07:31:37;;;;;;;5.85;3.67;;;;;;;;;;5070276;28;20024;-76
2023/06/02 07:34:03;;;;;;;9.43;4.25;;;;;;;;;;5069685;28;20554;-76
2023/06/02 07:36:29;;;;;;;7.40;4.20;;;;;;;;;;5069490;28;20036;-76
2023/06/02 07:38:54;;;;;;;6.78;3.97;;;;;;;;;;5069345;28;20492;-76
2023/06/02 07:41:20;;;;;;;7.43;3.80;;;;;;;;;;5069952;28;20149;-76
2023/06/02 07:43:46;;;;;;;7.53;3.85;;;;;;;;;;5069325;28;20036;-76
2023/06/02 07:46:12;;;;;;;6.55;3.60;;;;;;;;;;5069749;28;20024;-75
2023/06/02 07:48:37;;;;;;;5.22;3.58;;;;;;;;;;5069644;28;20092;-76
2023/06/02 07:51:03;;;;;;;7.22;4.00;;;;;;;;;;5069670;28;20108;-76
2023/06/02 07:53:31;;;;;;;5.78;3.72;;;;;;;;;;5069276;28;20030;-76
2023/06/02 07:55:56;;;;;;;6.28;3.58;;;;;;;;;;5069110;28;20385;-76
2023/06/02 07:58:22;;;;;;;6.70;3.35;;;;;;;;;;5069484;28;20120;-76
2023/06/02 08:00:48;;;;;;;7.38;3.95;;;;;;;;;;5069531;28;20021;-76
2023/06/02 08:03:13;;;;;;;6.82;3.60;;;;;;;;;;5069301;28;20031;-76
2023/06/02 08:05:39;;;;;;;7.53;4.43;;;;;;;;;;5069323;28;20024;-76
2023/06/02 08:08:04;;;;;;;6.53;3.70;;;;;;;;;;5069009;28;20032;-76
2023/06/02 08:10:30;;;;;;;6.32;3.92;;;;;;;;;;5069139;28;20619;-76
2023/06/02 08:12:55;;;;;;;5.85;3.92;;;;;;;;;;5069148;28;20380;-76
2023/06/02 08:15:21;;;;;;;6.07;3.80;;;;;;;;;;5068560;28;20108;-76
2023/06/02 08:17:47;;;;;;;6.40;3.65;;;;;;;;;;5069000;28;20432;-76
2023/06/02 08:20:16;;;;;;;6.28;3.55;;;;;;;;;;5068834;28;20082;-76
2023/06/02 08:22:41;;;;;;;8.10;3.80;;;;;;;;;;5068861;28;20107;-76
2023/06/02 08:25:07;;;;;;;6.57;3.70;;;;;;;;;;5067602;28;20543;-76
2023/06/02 08:27:32;;;;;;;5.90;3.40;;;;;;;;;;5069032;28;20032;-76
2023/06/02 08:29:58;;;;;;;5.57;3.70;;;;;;;;;;5068621;28;20109;-76
2023/06/02 08:32:24;;;;;;;5.07;3.40;;;;;;;;;;5068855;28;20108;-76
2023/06/02 08:34:50;;;;;;;6.03;3.50;;;;;;;;;;5067947;28;20110;-76
2023/06/02 08:37:17;;;;;;;7.75;3.92;;;;;;;;;;5068700;28;20388;-76
2023/06/02 08:39:48;;;;;;;6.72;3.38;;;;;;;;;;5068583;28;20094;-76
2023/06/02 08:42:14;;;;;;;5.40;3.53;;;;;;;;;;5069003;28;20032;-76
2023/06/02 08:44:41;;;;;;;4.90;3.42;;;;;;;;;;5068478;28;20108;-76
2023/06/02 08:47:10;;;;;;;7.10;3.63;;;;;;;;;;5069043;28;20032;-76
2023/06/02 08:49:36;;;;;;;6.00;3.35;;;;;;;;;;5068810;28;20526;-76
2023/06/02 08:52:26;;;;;;;6.20;3.28;;;;;;;;;;5068350;28;20508;-76
2023/06/02 08:54:51;;;;;;;9.10;3.63;;;;;;;;;;5068090;28;20039;-76
2023/06/02 08:57:20;;;;;;;7.90;3.95;;;;;;;;;;5068891;28;20384;-76
2023/06/02 08:59:46;;;;;;;5.38;3.40;;;;;;;;;;5068754;28;20036;-76
2023/06/02 09:02:11;;;;;;;7.30;3.80;;;;;;;;;;5068665;28;20103;-76
2023/06/02 09:04:37;;;;;;;6.05;3.78;;;;;;;;;;5068399;28;20103;-76
2023/06/02 09:07:23;;;;;;;11.57;3.65;;;;;;;;;;5068430;28;20024;-76
2023/06/02 09:09:51;;;;;;;12.57;3.78;;;;;;;;;;5068254;28;20119;-76
2023/06/02 09:12:18;;;;;;;7.30;3.67;;;;;;;;;;5068569;28;20488;-76
2023/06/02 09:14:46;;;;;;;7.05;3.92;;;;;;;;;;5068149;28;21938;-76
2023/06/02 09:17:25;;;;;;;12.55;3.97;;;;;;;;;;5068574;28;20029;-76
2023/06/02 09:19:54;;;;;;;6.50;3.63;;;;;;;;;;5068357;28;20029;-76
2023/06/02 09:22:19;;;;;;;6.18;3.65;;;;;;;;;;5068321;28;20490;-76
2023/06/02 09:24:45;;;;;;;7.15;3.60;;;;;;;;;;5068256;28;20028;-76
2023/06/02 09:27:15;;;;;;;6.88;3.45;;;;;;;;;;5068551;28;20089;-77
2023/06/02 09:29:42;;;;;;;5.97;3.40;;;;;;;;;;5068183;28;20017;-77
2023/06/02 09:32:13;;;;;;;7.35;3.55;;;;;;;;;;5068420;28;20069;-76
2023/06/02 09:34:38;;;;;;;8.23;3.65;;;;;;;;;;5068352;28;20078;-76
2023/06/02 09:37:12;;;;;;;8.30;4.30;;;;;;;;;;5067972;28;20017;-76
2023/06/02 09:39:43;;;;;;;7.20;3.60;;;;;;;;;;5068288;28;20071;-76
2023/06/02 09:42:10;;;;;;;7.10;3.75;;;;;;;;;;5068362;28;20524;-76
2023/06/02 09:44:35;;;;;;;7.55;3.70;;;;;;;;;;5068931;28;20029;-76
2023/06/02 09:47:03;;;;;;;7.13;3.70;;;;;;;;;;5071746;28;20081;-76
2023/06/02 09:49:39;;;;;;;7.68;3.92;;;;;;;;;;5072000;28;20454;-76
2023/06/02 09:52:13;;;;;;;6.70;3.53;;;;;;;;;;5071360;28;20048;-76
2023/06/02 09:54:39;;;;;;;7.47;3.95;;;;;;;;;;5071831;28;20032;-76
2023/06/02 09:57:06;;;;;;;5.97;3.47;;;;;;;;;;5070258;28;20078;-76
2023/06/02 09:59:32;;;;;;;7.57;3.55;;;;;;;;;;5071848;28;20027;-77
2023/06/02 10:01:58;;;;;;;7.32;3.72;;;;;;;;;;5071699;28;20392;-77
2023/06/02 10:04:23;;;;;;;9.43;3.65;;;;;;;;;;5071557;28;20499;-76
2023/06/02 10:07:20;;;;;;;5.25;3.53;;;;;;;;;;5070875;28;20039;-77
2023/06/02 10:10:06;;;;;;;5.40;3.60;;;;;;;;;;5071849;28;20032;-76
2023/06/02 10:12:47;;;;;;;5.35;3.47;;;;;;;;;;5070209;28;20024;-76
2023/06/02 10:15:33;;;;;;;6.05;3.70;;;;;;;;;;5071241;28;20024;-76
2023/06/02 10:18:27;;;;;;;6.70;3.53;;;;;;;;;;5071510;28;20033;-77
2023/06/02 10:21:40;;;;;;;6.00;3.50;;;;;;;;;;5071145;28;20025;-76
2023/06/02 10:24:12;;;;;;;6.18;3.40;;;;;;;;;;5048628;28;20031;-76
2023/06/02 10:27:10;;;;;;;6.22;3.35;;;;;;;;;;5031325;28;20502;-76
2023/06/02 10:29:36;;;;;;;5.78;3.33;;;;;;;;;;5065081;28;20040;-76
2023/06/02 10:32:19;;;;;;;5.03;3.40;;;;;;;;;;5071156;28;20025;-76
2023/06/02 10:34:49;;;;;;;5.13;3.10;;;;;;;;;;5071300;28;20089;-77
2023/06/02 10:37:15;;;;;;;7.00;3.25;;;;;;;;;;5070591;28;20024;-76
2023/06/02 10:39:44;;;;;;;4.95;3.05;;;;;;;;;;5070970;28;20132;-76
2023/06/02 10:42:14;;;;;;;8.02;2.90;;;;;;;;;;5070535;28;20028;-76
2023/06/02 10:44:39;;;;;;;5.75;2.78;;;;;;;;;;5071051;28;20029;-76
2023/06/02 10:47:17;;;;;;;4.90;2.78;;;;;;;;;;5070698;28;20031;-76
2023/06/02 10:49:59;;;;;;;5.07;3.10;;;;;;;;;;5071098;28;20504;-76
2023/06/02 10:52:30;;;;;;;5.63;2.80;;;;;;;;;;5070521;28;20035;-76
2023/06/02 10:55:18;;;;;;;;;;;;;;;;;;5071414;28;20491;-76
2023/06/02 10:57:52;;;;;;;4.32;2.83;;;;;;;;;;5071848;28;20002;-76
2023/06/02 11:00:45;;;;;;;6.20;3.13;;;;;;;;;;5070814;28;20028;-76
2023/06/02 11:03:22;;;;;;;6.80;2.90;;;;;;;;;;5070583;28;20112;-76
2023/06/02 11:05:50;;;;;;;6.07;3.10;;;;;;;;;;5070095;28;20033;-76
2023/06/02 11:08:18;;;;;;;5.53;3.25;;;;;;;;;;5070465;28;20476;-77
2023/06/02 11:10:45;;;;;;;5.65;3.55;;;;;;;;;;5070581;28;20021;-77
2023/06/02 11:13:12;;;;;;;4.20;2.95;;;;;;;;;;5070589;28;20031;-76
2023/06/02 11:15:38;;;;;;;5.07;3.00;;;;;;;;;;5070246;28;20113;-76
2023/06/02 11:18:21;;;;;;;5.50;3.10;;;;;;;;;;5070314;28;20064;-74
2023/06/02 11:20:51;;;;;;;4.45;3.03;;;;;;;;;;5070399;28;20484;-74
2023/06/02 11:23:17;;;;;;;4.00;2.92;;;;;;;;;;5070113;28;20389;-74
2023/06/02 11:25:46;;;;;;;6.18;2.92;;;;;;;;;;5070115;28;20032;-74
2023/06/02 11:28:17;;;;;;;3.80;2.80;;;;;;;;;;5070194;28;20036;-74
2023/06/02 11:30:42;;;;;;;;;;;;;;;;;;5070704;28;20032;-74
2023/06/02 11:33:08;;;;;;;4.85;2.80;;;;;;;;;;5069693;28;20402;-74
2023/06/02 11:35:35;;;;;;;4.95;2.90;;;;;;;;;;5069946;28;20402;-74
2023/06/02 11:38:02;;;;;;;4.45;2.72;;;;;;;;;;5069044;28;20472;-74
2023/06/02 11:40:29;;;;;;;4.00;2.70;;;;;;;;;;5069743;28;20032;-74
2023/06/02 11:42:55;;;;;;;5.40;2.97;;;;;;;;;;5069699;28;20028;-73
2023/06/02 11:45:22;;;;;;;3.88;2.33;;;;;;;;;;5069838;28;20401;-74
2023/06/02 11:48:11;;;;;;;4.68;3.00;;;;;;;;;;5068195;28;20037;-74
2023/06/02 11:50:37;;;;;;;4.55;2.80;;;;;;;;;;5069947;28;20029;-74
2023/06/02 11:53:03;;;;;;;5.78;3.10;;;;;;;;;;5069187;28;20067;-74
2023/06/02 11:55:32;;;;;;;6.88;2.75;;;;;;;;;;5069374;28;20048;-73
2023/06/02 11:58:22;;;;;;;5.25;2.80;;;;;;;;;;5069078;28;20095;-73
2023/06/02 12:00:49;;;;;;;3.58;2.60;;;;;;;;;;5069230;28;20028;-74
2023/06/02 12:03:15;;;;;;;6.80;3.42;;;;;;;;;;5069139;28;20029;-74
2023/06/02 12:05:45;;;;;;;5.05;2.90;;;;;;;;;;5069409;28;20017;-74
2023/06/02 12:08:22;;;;;;;4.50;2.80;;;;;;;;;;5067687;28;20028;-73
2023/06/02 12:10:48;;;;;;;5.25;2.80;;;;;;;;;;5069289;28;20074;-74
2023/06/02 12:13:28;;;;;;;4.40;2.90;;;;;;;;;;5067619;28;20035;-74
2023/06/02 12:15:54;;;;;;;4.20;2.70;;;;;;;;;;5069177;28;20120;-74
2023/06/02 12:18:32;;;;;;;5.55;3.03;;;;;;;;;;5068903;28;20619;-74
2023/06/02 12:20:59;;;;;;;4.18;2.70;;;;;;;;;;5069193;28;20016;-74
2023/06/02 12:23:44;;;;;;;5.68;2.80;;;;;;;;;;5067177;28;20457;-74
2023/06/02 12:26:09;;;;;;;5.10;2.83;;;;;;;;;;5069038;28;20048;-73
2023/06/02 12:28:35;;;;;;;4.72;2.85;;;;;;;;;;5068804;28;20058;-74
2023/06/02 12:31:00;;;;;;;4.45;2.75;;;;;;;;;;5069171;28;20020;-73
2023/06/02 12:33:25;;;;;;;3.28;2.33;;;;;;;;;;5068582;28;20468;-74
2023/06/02 12:35:51;;;;;;;6.20;2.47;;;;;;;;;;5068749;28;20035;-74
2023/06/02 12:38:17;;;;;;;4.65;2.75;;;;;;;;;;5068091;28;20516;-74
2023/06/02 12:40:42;;;;;;;5.03;2.70;;;;;;;;;;5069018;28;20190;-74
2023/06/02 12:43:08;;;;;;;5.22;2.90;;;;;;;;;;5068684;28;20016;-74
2023/06/02 12:45:33;;;;;;;4.93;2.88;;;;;;;;;;5069013;28;20028;-74
2023/06/02 12:48:00;;;;;;;4.43;2.53;;;;;;;;;;5068507;28;20017;-73
2023/06/02 12:50:25;;;;;;;4.30;2.55;;;;;;;;;;5068837;28;20358;-74
2023/06/02 12:52:52;;;;;;;6.22;2.92;;;;;;;;;;5068122;28;20028;-74
2023/06/02 12:55:18;;;;;;;4.18;2.65;;;;;;;;;;5068679;28;20044;-74
2023/06/02 12:57:47;;;;;;;4.22;2.60;;;;;;;;;;5068498;28;20025;-74
2023/06/02 13:00:14;;;;;;;3.65;2.63;;;;;;;;;;5068918;28;20089;-74
2023/06/02 13:02:41;;;;;;;4.32;2.63;;;;;;;;;;5068795;28;20663;-74
2023/06/02 13:05:08;;;;;;;4.07;2.45;;;;;;;;;;5068649;28;20036;-74
2023/06/02 13:07:35;;;;;;;4.85;2.63;;;;;;;;;;5067996;28;20025;-74
2023/06/02 13:10:01;;;;;;;4.53;2.60;;;;;;;;;;5068490;28;20025;-74
2023/06/02 13:12:26;;;;;;;4.40;2.90;;;;;;;;;;5068261;28;20035;-74
2023/06/02 13:14:52;;;;;;;5.32;2.90;;;;;;;;;;5068422;28;20033;-74
2023/06/02 13:17:17;;;;;;;4.43;2.67;;;;;;;;;;5068165;28;20028;-74
2023/06/02 13:19:46;;;;;;;4.82;2.97;;;;;;;;;;5069602;28;20082;-74
2023/06/02 13:22:13;;;;;;;4.18;2.75;;;;;;;;;;5071944;28;20094;-74
2023/06/02 13:24:38;;;;;;;4.25;2.58;;;;;;;;;;5072687;28;20066;-74
2023/06/02 13:27:04;;;;;;;4.70;3.13;;;;;;;;;;5072144;28;20029;-74
2023/06/02 13:29:29;;;;;;;4.03;2.80;;;;;;;;;;5071908;28;20024;-74
2023/06/02 13:31:55;;;;;;;5.40;2.88;;;;;;;;;;5070889;28;20086;-74
2023/06/02 13:34:20;;;;;;;3.97;2.70;;;;;;;;;;5072184;28;20061;-75
2023/06/02 13:36:46;;;;;;;5.07;2.50;;;;;;;;;;5071903;28;20028;-74
2023/06/02 13:39:12;;;;;;;4.35;2.97;;;;;;;;;;5070635;28;20531;-74
2023/06/02 13:41:38;;;;;;;4.93;2.50;;;;;;;;;;5072451;28;20473;-74
2023/06/02 13:44:04;;;;;;;4.63;2.72;;;;;;;;;;5071938;28;20025;-74
2023/06/02 13:46:29;;;;;;;5.10;2.92;;;;;;;;;;5071912;28;20041;-74
2023/06/02 13:48:55;;;;;;;5.38;2.80;;;;;;;;;;5071578;28;20029;-74
2023/06/02 13:51:20;;;;;;;5.00;2.92;;;;;;;;;;5071679;28;20036;-74
2023/06/02 13:53:45;;;;;;;3.97;2.35;;;;;;;;;;5071927;28;20028;-74
2023/06/02 13:56:11;;;;;;;4.88;3.10;;;;;;;;;;5071995;28;20424;-74
2023/06/02 13:58:36;;;;;;;4.53;2.70;;;;;;;;;;5071797;28;20028;-74
2023/06/02 14:01:03;;;;;;;5.53;2.80;;;;;;;;;;5071805;28;20021;-74
2023/06/02 14:03:31;;;;;;;4.90;2.80;;;;;;;;;;5071381;28;20025;-74
2023/06/02 14:05:57;;;;;;;3.63;2.78;;;;;;;;;;5070377;28;20017;-74
2023/06/02 14:08:22;;;;;;;5.75;2.60;;;;;;;;;;5071102;28;20512;-74
2023/06/02 14:10:48;;;;;;;4.45;2.85;;;;;;;;;;5071781;28;20033;-74
2023/06/02 14:13:13;;;;;;;3.85;2.58;;;;;;;;;;5071718;28;20036;-74
2023/06/02 14:15:39;;;;;;;4.65;2.78;;;;;;;;;;5071672;28;20044;-74
2023/06/02 14:18:04;;;;;;;5.60;2.65;;;;;;;;;;5071285;28;20428;-74
2023/06/02 14:20:30;;;;;;;4.97;2.90;;;;;;;;;;5071506;28;20055;-74
2023/06/02 14:22:55;;;;;;;5.50;2.70;;;;;;;;;;5069736;28;20031;-75
2023/06/02 14:25:21;;;;;;;4.95;3.03;;;;;;;;;;5071400;28;20024;-75
2023/06/02 14:27:46;;;;;;;5.65;3.08;;;;;;;;;;5070945;28;20033;-74
2023/06/02 14:30:12;;;;;;;4.85;2.80;;;;;;;;;;5069949;28;20032;-74
2023/06/02 14:32:37;;;;;;;4.03;2.85;;;;;;;;;;5070381;28;20025;-75
2023/06/02 14:35:03;;;;;;;4.35;2.97;;;;;;;;;;5071078;28;20035;-74
2023/06/02 14:37:29;;;;;;;3.90;2.75;;;;;;;;;;5070822;28;20674;-74
2023/06/02 14:39:56;;;;;;;4.30;2.63;;;;;;;;;;5071122;28;20044;-74
2023/06/02 14:42:21;;;;;;;5.40;2.75;;;;;;;;;;5071062;28;20146;-74
2023/06/02 14:44:47;;;;;;;4.82;2.63;;;;;;;;;;5070498;28;20028;-74
2023/06/02 14:47:12;;;;;;;4.80;2.88;;;;;;;;;;5070897;28;20025;-74
2023/06/02 14:49:38;;;;;;;5.43;2.83;;;;;;;;;;5070690;28;20141;-74
2023/06/02 14:52:03;;;;;;;5.47;2.78;;;;;;;;;;5070921;28;20028;-74